Terminal Aerodrome Forecast
Issued by NWS Mt. Holly, NJ

Home | Current Version | Previous Version | Text Only | Print | Product List | Glossary On
Versions: 1 2 3 4 5 6 7 8 9 10 11 12 13 14 15 16 17 18 19 20 21 22 23 24 25
000
FTUS41 KPHI 061132
TAFPHL
TAF
KPHL 061132Z 0612/0718 05007KT P6SM BKN050
      TEMPO 0614/0617 -SHRA
     FM061800 07009KT P6SM OVC050
     FM070300 VRB04KT P6SM BKN040
     FM071200 12006KT P6SM BKN040=

USA.gov is the U.S. government's official web portal to all federal, state and local government web resources and services.